sensor_id;sensor_type;location;lat;lon;timestamp;P1;durP1;ratioP1;P2;durP2;ratioP2
19998;SDS011;10160;50.926;4.374;2022-07-29T00:00:41;4.93;;;1.50;;
19998;SDS011;10160;50.926;4.374;2022-07-29T00:03:09;4.38;;;1.40;;
19998;SDS011;10160;50.926;4.374;2022-07-29T00:05:38;4.97;;;1.40;;
19998;SDS011;10160;50.926;4.374;2022-07-29T00:08:05;8.68;;;1.50;;
19998;SDS011;10160;50.926;4.374;2022-07-29T00:10:32;4.95;;;1.50;;
19998;SDS011;10160;50.926;4.374;2022-07-29T00:12:57;4.90;;;1.27;;
19998;SDS011;10160;50.926;4.374;2022-07-29T00:15:23;4.55;;;1.48;;
19998;SDS011;10160;50.926;4.374;2022-07-29T00:17:49;2.65;;;1.23;;
19998;SDS011;10160;50.926;4.374;2022-07-29T00:20:15;5.03;;;1.45;;
19998;SDS011;10160;50.926;4.374;2022-07-29T00:22:40;6.75;;;1.30;;
19998;SDS011;10160;50.926;4.374;2022-07-29T00:25:06;13.35;;;2.03;;
19998;SDS011;10160;50.926;4.374;2022-07-29T00:27:33;5.47;;;1.40;;
19998;SDS011;10160;50.926;4.374;2022-07-29T00:30:00;4.93;;;1.33;;
19998;SDS011;10160;50.926;4.374;2022-07-29T00:32:25;4.72;;;1.50;;
19998;SDS011;10160;50.926;4.374;2022-07-29T00:34:51;4.00;;;1.50;;
19998;SDS011;10160;50.926;4.374;2022-07-29T00:37:35;7.20;;;1.55;;
19998;SDS011;10160;50.926;4.374;2022-07-29T00:40:01;9.20;;;1.95;;
19998;SDS011;10160;50.926;4.374;2022-07-29T00:42:27;4.97;;;1.52;;
19998;SDS011;10160;50.926;4.374;2022-07-29T00:44:53;7.03;;;1.63;;
19998;SDS011;10160;50.926;4.374;2022-07-29T00:47:18;8.82;;;1.58;;
19998;SDS011;10160;50.926;4.374;2022-07-29T00:49:44;5.93;;;1.55;;
19998;SDS011;10160;50.926;4.374;2022-07-29T00:52:10;7.65;;;1.60;;
19998;SDS011;10160;50.926;4.374;2022-07-29T00:54:37;7.10;;;1.60;;
19998;SDS011;10160;50.926;4.374;2022-07-29T00:57:04;6.65;;;1.30;;
19998;SDS011;10160;50.926;4.374;2022-07-29T00:59:31;9.00;;;1.50;;
19998;SDS011;10160;50.926;4.374;2022-07-29T01:01:57;7.60;;;1.55;;
19998;SDS011;10160;50.926;4.374;2022-07-29T01:04:23;8.38;;;1.65;;
19998;SDS011;10160;50.926;4.374;2022-07-29T01:06:49;5.90;;;1.88;;
19998;SDS011;10160;50.926;4.374;2022-07-29T01:09:15;7.35;;;1.77;;
19998;SDS011;10160;50.926;4.374;2022-07-29T01:11:44;7.15;;;1.63;;
19998;SDS011;10160;50.926;4.374;2022-07-29T01:14:11;8.73;;;1.70;;
19998;SDS011;10160;50.926;4.374;2022-07-29T01:16:40;7.50;;;1.60;;
19998;SDS011;10160;50.926;4.374;2022-07-29T01:30:38;10.25;;;2.15;;
19998;SDS011;10160;50.926;4.374;2022-07-29T01:33:07;10.00;;;1.27;;
19998;SDS011;10160;50.926;4.374;2022-07-29T01:35:58;6.57;;;1.85;;
19998;SDS011;10160;50.926;4.374;2022-07-29T01:38:27;7.00;;;1.75;;
19998;SDS011;10160;50.926;4.374;2022-07-29T01:40:54;7.22;;;1.70;;
19998;SDS011;10160;50.926;4.374;2022-07-29T01:43:59;5.32;;;1.38;;
19998;SDS011;10160;50.926;4.374;2022-07-29T01:46:36;4.55;;;1.50;;
19998;SDS011;10160;50.926;4.374;2022-07-29T01:49:20;4.50;;;1.40;;
19998;SDS011;10160;50.926;4.374;2022-07-29T01:51:51;3.75;;;1.30;;
19998;SDS011;10160;50.926;4.374;2022-07-29T01:57:09;8.80;;;1.50;;
19998;SDS011;10160;50.926;4.374;2022-07-29T01:59:38;7.88;;;1.48;;
19998;SDS011;10160;50.926;4.374;2022-07-29T02:02:06;4.28;;;1.90;;
19998;SDS011;10160;50.926;4.374;2022-07-29T02:04:35;5.93;;;1.42;;
19998;SDS011;10160;50.926;4.374;2022-07-29T02:07:04;6.47;;;1.58;;
19998;SDS011;10160;50.926;4.374;2022-07-29T02:09:31;4.80;;;1.35;;
19998;SDS011;10160;50.926;4.374;2022-07-29T02:12:00;6.57;;;1.80;;
19998;SDS011;10160;50.926;4.374;2022-07-29T02:14:28;4.97;;;1.70;;
19998;SDS011;10160;50.926;4.374;2022-07-29T02:16:58;5.78;;;1.98;;
19998;SDS011;10160;50.926;4.374;2022-07-29T02:19:26;4.28;;;1.60;;
19998;SDS011;10160;50.926;4.374;2022-07-29T02:21:54;4.22;;;1.67;;
19998;SDS011;10160;50.926;4.374;2022-07-29T02:24:22;5.63;;;1.88;;
19998;SDS011;10160;50.926;4.374;2022-07-29T02:26:49;6.40;;;2.13;;
19998;SDS011;10160;50.926;4.374;2022-07-29T02:29:18;7.65;;;1.77;;
19998;SDS011;10160;50.926;4.374;2022-07-29T02:31:47;7.18;;;2.10;;
19998;SDS011;10160;50.926;4.374;2022-07-29T02:34:14;5.63;;;1.52;;
19998;SDS011;10160;50.926;4.374;2022-07-29T02:36:42;4.95;;;1.83;;
19998;SDS011;10160;50.926;4.374;2022-07-29T02:39:09;8.05;;;1.70;;
19998;SDS011;10160;50.926;4.374;2022-07-29T02:41:40;5.15;;;1.70;;
19998;SDS011;10160;50.926;4.374;2022-07-29T02:44:09;5.65;;;1.83;;
19998;SDS011;10160;50.926;4.374;2022-07-29T02:52:12;4.07;;;1.67;;
19998;SDS011;10160;50.926;4.374;2022-07-29T02:59:51;3.80;;;1.55;;
19998;SDS011;10160;50.926;4.374;2022-07-29T03:02:21;7.43;;;1.98;;
19998;SDS011;10160;50.926;4.374;2022-07-29T03:04:47;6.03;;;2.17;;
19998;SDS011;10160;50.926;4.374;2022-07-29T03:07:15;8.05;;;1.88;;
19998;SDS011;10160;50.926;4.374;2022-07-29T03:09:43;5.28;;;1.60;;
19998;SDS011;10160;50.926;4.374;2022-07-29T03:12:10;6.70;;;2.17;;
19998;SDS011;10160;50.926;4.374;2022-07-29T03:14:36;9.50;;;2.15;;
19998;SDS011;10160;50.926;4.374;2022-07-29T03:17:03;8.13;;;1.85;;
19998;SDS011;10160;50.926;4.374;2022-07-29T03:19:30;5.13;;;1.98;;
19998;SDS011;10160;50.926;4.374;2022-07-29T03:21:57;4.47;;;1.70;;
19998;SDS011;10160;50.926;4.374;2022-07-29T03:24:26;5.38;;;1.80;;
19998;SDS011;10160;50.926;4.374;2022-07-29T03:26:54;5.97;;;2.25;;
19998;SDS011;10160;50.926;4.374;2022-07-29T03:29:21;6.20;;;1.95;;
19998;SDS011;10160;50.926;4.374;2022-07-29T03:31:46;6.50;;;2.05;;
19998;SDS011;10160;50.926;4.374;2022-07-29T03:34:12;4.65;;;1.83;;
19998;SDS011;10160;50.926;4.374;2022-07-29T03:36:38;4.15;;;1.85;;
19998;SDS011;10160;50.926;4.374;2022-07-29T03:39:03;6.05;;;2.08;;
19998;SDS011;10160;50.926;4.374;2022-07-29T03:41:30;10.23;;;2.50;;
19998;SDS011;10160;50.926;4.374;2022-07-29T03:43:57;5.43;;;2.25;;
19998;SDS011;10160;50.926;4.374;2022-07-29T03:46:24;10.50;;;2.38;;
19998;SDS011;10160;50.926;4.374;2022-07-29T03:48:55;8.25;;;2.33;;
19998;SDS011;10160;50.926;4.374;2022-07-29T03:51:25;8.32;;;2.88;;
19998;SDS011;10160;50.926;4.374;2022-07-29T03:53:51;7.22;;;2.55;;
19998;SDS011;10160;50.926;4.374;2022-07-29T03:56:18;6.88;;;2.25;;
19998;SDS011;10160;50.926;4.374;2022-07-29T03:58:48;9.00;;;2.50;;
19998;SDS011;10160;50.926;4.374;2022-07-29T04:01:16;8.00;;;2.92;;
19998;SDS011;10160;50.926;4.374;2022-07-29T04:03:43;10.55;;;2.70;;
19998;SDS011;10160;50.926;4.374;2022-07-29T04:06:14;8.95;;;2.40;;
19998;SDS011;10160;50.926;4.374;2022-07-29T04:08:40;5.90;;;2.50;;
19998;SDS011;10160;50.926;4.374;2022-07-29T04:11:05;5.18;;;2.40;;
19998;SDS011;10160;50.926;4.374;2022-07-29T04:13:31;6.30;;;2.58;;
19998;SDS011;10160;50.926;4.374;2022-07-29T04:15:57;6.97;;;2.70;;
19998;SDS011;10160;50.926;4.374;2022-07-29T04:18:23;5.75;;;2.70;;
19998;SDS011;10160;50.926;4.374;2022-07-29T04:20:49;7.90;;;2.67;;
19998;SDS011;10160;50.926;4.374;2022-07-29T04:23:15;5.95;;;2.58;;
19998;SDS011;10160;50.926;4.374;2022-07-29T04:25:41;9.60;;;3.00;;
19998;SDS011;10160;50.926;4.374;2022-07-29T04:28:07;8.48;;;2.65;;
19998;SDS011;10160;50.926;4.374;2022-07-29T04:30:34;6.75;;;2.35;;
19998;SDS011;10160;50.926;4.374;2022-07-29T04:33:01;6.03;;;2.40;;
19998;SDS011;10160;50.926;4.374;2022-07-29T04:35:28;9.05;;;2.60;;
19998;SDS011;10160;50.926;4.374;2022-07-29T04:37:55;8.38;;;2.60;;
19998;SDS011;10160;50.926;4.374;2022-07-29T04:40:21;5.72;;;2.50;;
19998;SDS011;10160;50.926;4.374;2022-07-29T04:42:47;6.88;;;2.60;;
19998;SDS011;10160;50.926;4.374;2022-07-29T04:45:12;8.10;;;2.53;;
19998;SDS011;10160;50.926;4.374;2022-07-29T04:47:38;7.75;;;2.88;;
19998;SDS011;10160;50.926;4.374;2022-07-29T04:50:05;7.60;;;2.60;;
19998;SDS011;10160;50.926;4.374;2022-07-29T04:52:32;4.65;;;2.60;;
19998;SDS011;10160;50.926;4.374;2022-07-29T04:54:57;5.63;;;2.53;;
19998;SDS011;10160;50.926;4.374;2022-07-29T04:57:23;7.32;;;2.45;;
19998;SDS011;10160;50.926;4.374;2022-07-29T04:59:49;5.88;;;2.35;;
19998;SDS011;10160;50.926;4.374;2022-07-29T05:02:14;9.15;;;2.63;;
19998;SDS011;10160;50.926;4.374;2022-07-29T05:04:40;6.10;;;2.83;;
19998;SDS011;10160;50.926;4.374;2022-07-29T05:07:06;7.95;;;2.50;;
19998;SDS011;10160;50.926;4.374;2022-07-29T05:09:31;7.10;;;2.40;;
19998;SDS011;10160;50.926;4.374;2022-07-29T05:11:57;7.72;;;2.65;;
19998;SDS011;10160;50.926;4.374;2022-07-29T05:14:23;6.72;;;2.30;;
19998;SDS011;10160;50.926;4.374;2022-07-29T05:16:49;6.82;;;2.50;;
19998;SDS011;10160;50.926;4.374;2022-07-29T05:19:16;7.90;;;2.60;;
19998;SDS011;10160;50.926;4.374;2022-07-29T05:21:42;7.78;;;2.70;;
19998;SDS011;10160;50.926;4.374;2022-07-29T05:24:09;8.75;;;2.60;;
19998;SDS011;10160;50.926;4.374;2022-07-29T05:26:35;6.57;;;2.55;;
19998;SDS011;10160;50.926;4.374;2022-07-29T05:29:01;9.85;;;2.72;;
19998;SDS011;10160;50.926;4.374;2022-07-29T05:31:26;5.43;;;2.13;;
19998;SDS011;10160;50.926;4.374;2022-07-29T05:33:52;4.80;;;2.47;;
19998;SDS011;10160;50.926;4.374;2022-07-29T05:36:18;10.63;;;2.85;;
19998;SDS011;10160;50.926;4.374;2022-07-29T05:38:43;5.97;;;2.25;;
19998;SDS011;10160;50.926;4.374;2022-07-29T05:41:10;11.63;;;2.70;;
19998;SDS011;10160;50.926;4.374;2022-07-29T05:43:35;6.57;;;2.45;;
19998;SDS011;10160;50.926;4.374;2022-07-29T05:46:01;8.30;;;2.88;;
19998;SDS011;10160;50.926;4.374;2022-07-29T05:48:27;8.30;;;2.70;;
19998;SDS011;10160;50.926;4.374;2022-07-29T05:50:53;8.30;;;2.42;;
19998;SDS011;10160;50.926;4.374;2022-07-29T05:53:19;9.18;;;2.85;;
19998;SDS011;10160;50.926;4.374;2022-07-29T05:55:45;7.07;;;2.58;;
19998;SDS011;10160;50.926;4.374;2022-07-29T05:58:11;9.05;;;2.88;;
19998;SDS011;10160;50.926;4.374;2022-07-29T06:00:37;10.55;;;3.20;;
19998;SDS011;10160;50.926;4.374;2022-07-29T06:03:02;24.25;;;3.33;;
19998;SDS011;10160;50.926;4.374;2022-07-29T06:05:28;9.65;;;3.08;;
19998;SDS011;10160;50.926;4.374;2022-07-29T06:07:54;7.22;;;3.50;;
19998;SDS011;10160;50.926;4.374;2022-07-29T06:10:19;6.03;;;2.90;;
19998;SDS011;10160;50.926;4.374;2022-07-29T06:12:45;8.35;;;2.95;;
19998;SDS011;10160;50.926;4.374;2022-07-29T06:15:11;7.68;;;2.95;;
19998;SDS011;10160;50.926;4.374;2022-07-29T06:17:36;8.30;;;3.25;;
19998;SDS011;10160;50.926;4.374;2022-07-29T06:20:02;9.65;;;2.83;;
19998;SDS011;10160;50.926;4.374;2022-07-29T06:22:28;8.02;;;3.30;;
19998;SDS011;10160;50.926;4.374;2022-07-29T06:24:54;10.52;;;3.45;;
19998;SDS011;10160;50.926;4.374;2022-07-29T06:27:20;8.13;;;2.97;;
19998;SDS011;10160;50.926;4.374;2022-07-29T06:29:46;8.93;;;3.50;;
19998;SDS011;10160;50.926;4.374;2022-07-29T06:32:11;9.98;;;3.20;;
19998;SDS011;10160;50.926;4.374;2022-07-29T06:34:37;10.10;;;3.03;;
19998;SDS011;10160;50.926;4.374;2022-07-29T06:37:09;7.47;;;3.35;;
19998;SDS011;10160;50.926;4.374;2022-07-29T06:39:35;7.88;;;3.00;;
19998;SDS011;10160;50.926;4.374;2022-07-29T06:42:01;9.52;;;3.25;;
19998;SDS011;10160;50.926;4.374;2022-07-29T06:44:28;7.75;;;3.42;;
19998;SDS011;10160;50.926;4.374;2022-07-29T06:46:54;8.10;;;3.72;;
19998;SDS011;10160;50.926;4.374;2022-07-29T06:49:20;11.48;;;3.22;;
19998;SDS011;10160;50.926;4.374;2022-07-29T06:51:48;11.10;;;3.20;;
19998;SDS011;10160;50.926;4.374;2022-07-29T06:54:14;10.60;;;3.75;;
19998;SDS011;10160;50.926;4.374;2022-07-29T06:56:39;12.48;;;3.53;;
19998;SDS011;10160;50.926;4.374;2022-07-29T06:59:10;7.90;;;3.42;;
19998;SDS011;10160;50.926;4.374;2022-07-29T07:01:37;7.50;;;3.03;;
19998;SDS011;10160;50.926;4.374;2022-07-29T07:04:05;8.15;;;3.25;;
19998;SDS011;10160;50.926;4.374;2022-07-29T07:06:30;7.95;;;3.30;;
19998;SDS011;10160;50.926;4.374;2022-07-29T07:08:56;12.35;;;3.42;;
19998;SDS011;10160;50.926;4.374;2022-07-29T07:11:22;6.35;;;3.28;;
19998;SDS011;10160;50.926;4.374;2022-07-29T07:13:47;6.03;;;3.53;;
19998;SDS011;10160;50.926;4.374;2022-07-29T07:16:13;12.57;;;3.33;;
19998;SDS011;10160;50.926;4.374;2022-07-29T07:18:39;6.13;;;2.92;;
19998;SDS011;10160;50.926;4.374;2022-07-29T07:21:04;11.10;;;3.50;;
19998;SDS011;10160;50.926;4.374;2022-07-29T07:23:30;10.32;;;3.17;;
19998;SDS011;10160;50.926;4.374;2022-07-29T07:25:56;9.30;;;3.60;;
19998;SDS011;10160;50.926;4.374;2022-07-29T07:28:22;13.35;;;3.55;;
19998;SDS011;10160;50.926;4.374;2022-07-29T07:30:47;9.55;;;3.92;;
19998;SDS011;10160;50.926;4.374;2022-07-29T07:33:13;9.70;;;3.33;;
19998;SDS011;10160;50.926;4.374;2022-07-29T07:35:39;5.95;;;2.97;;
19998;SDS011;10160;50.926;4.374;2022-07-29T07:38:06;9.23;;;3.42;;
19998;SDS011;10160;50.926;4.374;2022-07-29T07:40:31;9.35;;;3.40;;
19998;SDS011;10160;50.926;4.374;2022-07-29T07:42:57;10.10;;;3.55;;
19998;SDS011;10160;50.926;4.374;2022-07-29T07:45:23;9.77;;;3.95;;
19998;SDS011;10160;50.926;4.374;2022-07-29T07:47:49;8.25;;;3.35;;
19998;SDS011;10160;50.926;4.374;2022-07-29T07:50:14;7.78;;;3.25;;
19998;SDS011;10160;50.926;4.374;2022-07-29T07:52:52;11.80;;;3.55;;
19998;SDS011;10160;50.926;4.374;2022-07-29T07:55:20;6.88;;;3.50;;
19998;SDS011;10160;50.926;4.374;2022-07-29T07:57:46;9.57;;;3.75;;
19998;SDS011;10160;50.926;4.374;2022-07-29T08:00:13;8.35;;;3.40;;
19998;SDS011;10160;50.926;4.374;2022-07-29T08:02:40;7.68;;;3.60;;
19998;SDS011;10160;50.926;4.374;2022-07-29T08:05:07;6.63;;;3.13;;
19998;SDS011;10160;50.926;4.374;2022-07-29T08:07:33;10.20;;;3.60;;
19998;SDS011;10160;50.926;4.374;2022-07-29T08:09:59;7.90;;;3.00;;
19998;SDS011;10160;50.926;4.374;2022-07-29T08:12:25;7.32;;;2.60;;
19998;SDS011;10160;50.926;4.374;2022-07-29T08:14:50;6.75;;;2.97;;
19998;SDS011;10160;50.926;4.374;2022-07-29T08:17:16;8.60;;;3.30;;
19998;SDS011;10160;50.926;4.374;2022-07-29T08:19:42;6.95;;;2.97;;
19998;SDS011;10160;50.926;4.374;2022-07-29T08:22:07;6.65;;;3.28;;
19998;SDS011;10160;50.926;4.374;2022-07-29T08:24:33;6.25;;;3.13;;
19998;SDS011;10160;50.926;4.374;2022-07-29T08:27:08;6.72;;;2.50;;
19998;SDS011;10160;50.926;4.374;2022-07-29T08:29:38;6.28;;;2.85;;
19998;SDS011;10160;50.926;4.374;2022-07-29T08:32:04;7.75;;;3.22;;
19998;SDS011;10160;50.926;4.374;2022-07-29T08:34:31;6.68;;;2.40;;
19998;SDS011;10160;50.926;4.374;2022-07-29T08:36:57;7.22;;;2.70;;
19998;SDS011;10160;50.926;4.374;2022-07-29T08:39:23;8.43;;;2.70;;
19998;SDS011;10160;50.926;4.374;2022-07-29T08:41:50;12.32;;;2.90;;
19998;SDS011;10160;50.926;4.374;2022-07-29T08:44:17;10.32;;;3.00;;
19998;SDS011;10160;50.926;4.374;2022-07-29T08:46:43;12.27;;;2.85;;
19998;SDS011;10160;50.926;4.374;2022-07-29T08:49:09;10.07;;;2.65;;
19998;SDS011;10160;50.926;4.374;2022-07-29T08:51:36;6.18;;;2.33;;
19998;SDS011;10160;50.926;4.374;2022-07-29T08:54:04;7.43;;;2.22;;
19998;SDS011;10160;50.926;4.374;2022-07-29T08:56:31;7.38;;;2.35;;
19998;SDS011;10160;50.926;4.374;2022-07-29T08:58:58;12.35;;;1.85;;
19998;SDS011;10160;50.926;4.374;2022-07-29T09:01:27;9.15;;;1.88;;
19998;SDS011;10160;50.926;4.374;2022-07-29T09:03:55;5.97;;;1.90;;
19998;SDS011;10160;50.926;4.374;2022-07-29T09:06:29;12.13;;;2.58;;
19998;SDS011;10160;50.926;4.374;2022-07-29T09:09:02;9.70;;;2.03;;
19998;SDS011;10160;50.926;4.374;2022-07-29T09:11:29;8.43;;;2.58;;
19998;SDS011;10160;50.926;4.374;2022-07-29T09:13:57;6.97;;;2.28;;
19998;SDS011;10160;50.926;4.374;2022-07-29T09:16:22;9.57;;;3.08;;
19998;SDS011;10160;50.926;4.374;2022-07-29T09:18:48;6.20;;;1.90;;
19998;SDS011;10160;50.926;4.374;2022-07-29T09:21:14;11.40;;;2.20;;
19998;SDS011;10160;50.926;4.374;2022-07-29T09:24:06;8.02;;;2.22;;
19998;SDS011;10160;50.926;4.374;2022-07-29T09:26:40;10.05;;;2.42;;
19998;SDS011;10160;50.926;4.374;2022-07-29T09:29:12;7.55;;;2.25;;
19998;SDS011;10160;50.926;4.374;2022-07-29T09:31:43;10.38;;;2.70;;
19998;SDS011;10160;50.926;4.374;2022-07-29T09:34:10;8.05;;;2.38;;
19998;SDS011;10160;50.926;4.374;2022-07-29T09:36:42;10.82;;;2.22;;
19998;SDS011;10160;50.926;4.374;2022-07-29T09:39:13;6.80;;;2.20;;
19998;SDS011;10160;50.926;4.374;2022-07-29T09:41:54;5.80;;;1.90;;
19998;SDS011;10160;50.926;4.374;2022-07-29T09:44:22;7.70;;;2.20;;
19998;SDS011;10160;50.926;4.374;2022-07-29T09:49:23;6.88;;;1.98;;
19998;SDS011;10160;50.926;4.374;2022-07-29T09:54:47;4.55;;;1.80;;
19998;SDS011;10160;50.926;4.374;2022-07-29T09:59:59;7.82;;;1.48;;
19998;SDS011;10160;50.926;4.374;2022-07-29T10:02:34;8.05;;;1.80;;
19998;SDS011;10160;50.926;4.374;2022-07-29T10:05:01;12.75;;;2.00;;
19998;SDS011;10160;50.926;4.374;2022-07-29T10:07:45;11.95;;;2.00;;
19998;SDS011;10160;50.926;4.374;2022-07-29T10:10:20;8.13;;;1.70;;
19998;SDS011;10160;50.926;4.374;2022-07-29T10:12:57;6.03;;;1.95;;
19998;SDS011;10160;50.926;4.374;2022-07-29T10:15:24;10.43;;;2.30;;
19998;SDS011;10160;50.926;4.374;2022-07-29T10:17:52;5.82;;;1.50;;
19998;SDS011;10160;50.926;4.374;2022-07-29T10:20:19;8.38;;;1.50;;
19998;SDS011;10160;50.926;4.374;2022-07-29T10:22:46;6.60;;;1.90;;
19998;SDS011;10160;50.926;4.374;2022-07-29T10:25:12;13.07;;;1.95;;
19998;SDS011;10160;50.926;4.374;2022-07-29T10:27:40;8.98;;;2.20;;
19998;SDS011;10160;50.926;4.374;2022-07-29T10:30:06;17.20;;;2.38;;
19998;SDS011;10160;50.926;4.374;2022-07-29T10:32:35;4.82;;;2.30;;
19998;SDS011;10160;50.926;4.374;2022-07-29T10:40:28;7.50;;;2.10;;
19998;SDS011;10160;50.926;4.374;2022-07-29T10:43:33;8.50;;;1.88;;
19998;SDS011;10160;50.926;4.374;2022-07-29T10:46:03;10.45;;;2.72;;
19998;SDS011;10160;50.926;4.374;2022-07-29T10:48:29;8.32;;;3.25;;
19998;SDS011;10160;50.926;4.374;2022-07-29T10:51:02;10.82;;;2.53;;
19998;SDS011;10160;50.926;4.374;2022-07-29T10:56:30;10.05;;;2.63;;
19998;SDS011;10160;50.926;4.374;2022-07-29T11:01:43;9.18;;;2.55;;
19998;SDS011;10160;50.926;4.374;2022-07-29T11:04:09;7.05;;;3.05;;
19998;SDS011;10160;50.926;4.374;2022-07-29T11:09:25;8.48;;;3.50;;
19998;SDS011;10160;50.926;4.374;2022-07-29T11:11:51;8.02;;;2.67;;
19998;SDS011;10160;50.926;4.374;2022-07-29T11:14:18;13.65;;;3.08;;
19998;SDS011;10160;50.926;4.374;2022-07-29T11:17:04;8.50;;;3.40;;
19998;SDS011;10160;50.926;4.374;2022-07-29T11:19:32;9.38;;;3.83;;
19998;SDS011;10160;50.926;4.374;2022-07-29T11:21:58;8.95;;;3.60;;
19998;SDS011;10160;50.926;4.374;2022-07-29T11:24:30;8.95;;;3.75;;
19998;SDS011;10160;50.926;4.374;2022-07-29T11:27:07;9.65;;;2.90;;
19998;SDS011;10160;50.926;4.374;2022-07-29T11:29:56;6.05;;;2.08;;
19998;SDS011;10160;50.926;4.374;2022-07-29T11:32:23;12.32;;;4.32;;
19998;SDS011;10160;50.926;4.374;2022-07-29T11:37:35;14.57;;;3.53;;
19998;SDS011;10160;50.926;4.374;2022-07-29T11:45:04;9.57;;;3.08;;
19998;SDS011;10160;50.926;4.374;2022-07-29T11:47:38;12.15;;;2.60;;
19998;SDS011;10160;50.926;4.374;2022-07-29T11:50:07;6.90;;;3.10;;
19998;SDS011;10160;50.926;4.374;2022-07-29T11:52:35;8.80;;;2.70;;
19998;SDS011;10160;50.926;4.374;2022-07-29T11:55:10;7.53;;;2.38;;
19998;SDS011;10160;50.926;4.374;2022-07-29T11:57:51;9.18;;;2.05;;
19998;SDS011;10160;50.926;4.374;2022-07-29T12:00:31;7.85;;;2.00;;
19998;SDS011;10160;50.926;4.374;2022-07-29T12:03:02;9.98;;;2.13;;
19998;SDS011;10160;50.926;4.374;2022-07-29T12:05:33;5.88;;;1.75;;
19998;SDS011;10160;50.926;4.374;2022-07-29T12:08:09;9.23;;;2.17;;
19998;SDS011;10160;50.926;4.374;2022-07-29T12:10:37;6.80;;;2.60;;
19998;SDS011;10160;50.926;4.374;2022-07-29T12:13:04;8.32;;;1.98;;
19998;SDS011;10160;50.926;4.374;2022-07-29T12:15:31;9.55;;;2.72;;
19998;SDS011;10160;50.926;4.374;2022-07-29T12:17:57;8.88;;;2.53;;
19998;SDS011;10160;50.926;4.374;2022-07-29T12:20:26;11.43;;;2.60;;
19998;SDS011;10160;50.926;4.374;2022-07-29T12:22:54;9.10;;;2.00;;
19998;SDS011;10160;50.926;4.374;2022-07-29T12:25:21;11.35;;;3.38;;
19998;SDS011;10160;50.926;4.374;2022-07-29T12:27:57;8.80;;;2.33;;
19998;SDS011;10160;50.926;4.374;2022-07-29T12:30:33;13.63;;;2.90;;
19998;SDS011;10160;50.926;4.374;2022-07-29T12:33:14;9.82;;;3.03;;
19998;SDS011;10160;50.926;4.374;2022-07-29T12:35:42;7.10;;;2.60;;
19998;SDS011;10160;50.926;4.374;2022-07-29T12:38:14;9.05;;;2.22;;
19998;SDS011;10160;50.926;4.374;2022-07-29T12:40:40;11.13;;;2.25;;
19998;SDS011;10160;50.926;4.374;2022-07-29T12:45:36;11.43;;;2.55;;
19998;SDS011;10160;50.926;4.374;2022-07-29T12:48:03;5.00;;;1.67;;
19998;SDS011;10160;50.926;4.374;2022-07-29T12:50:30;6.60;;;2.25;;
19998;SDS011;10160;50.926;4.374;2022-07-29T12:53:18;10.63;;;2.38;;
19998;SDS011;10160;50.926;4.374;2022-07-29T12:58:13;5.47;;;1.92;;
19998;SDS011;10160;50.926;4.374;2022-07-29T13:00:58;5.97;;;2.17;;
19998;SDS011;10160;50.926;4.374;2022-07-29T13:03:27;8.02;;;1.90;;
19998;SDS011;10160;50.926;4.374;2022-07-29T13:05:54;4.88;;;1.60;;
19998;SDS011;10160;50.926;4.374;2022-07-29T13:08:19;5.50;;;2.20;;
19998;SDS011;10160;50.926;4.374;2022-07-29T13:10:45;7.10;;;1.67;;
19998;SDS011;10160;50.926;4.374;2022-07-29T13:13:12;8.30;;;1.50;;
19998;SDS011;10160;50.926;4.374;2022-07-29T13:15:40;6.28;;;1.45;;
19998;SDS011;10160;50.926;4.374;2022-07-29T13:21:12;12.30;;;1.85;;
19998;SDS011;10160;50.926;4.374;2022-07-29T13:23:39;7.38;;;2.03;;
19998;SDS011;10160;50.926;4.374;2022-07-29T13:26:08;7.70;;;2.63;;
19998;SDS011;10160;50.926;4.374;2022-07-29T13:28:36;6.95;;;1.60;;
19998;SDS011;10160;50.926;4.374;2022-07-29T13:31:02;7.93;;;1.83;;
19998;SDS011;10160;50.926;4.374;2022-07-29T13:33:28;8.98;;;2.00;;
19998;SDS011;10160;50.926;4.374;2022-07-29T13:35:53;6.00;;;1.67;;
19998;SDS011;10160;50.926;4.374;2022-07-29T13:38:20;7.78;;;1.48;;
19998;SDS011;10160;50.926;4.374;2022-07-29T13:40:45;7.68;;;1.73;;
19998;SDS011;10160;50.926;4.374;2022-07-29T13:43:11;8.95;;;1.80;;
19998;SDS011;10160;50.926;4.374;2022-07-29T13:45:37;5.55;;;1.58;;
19998;SDS011;10160;50.926;4.374;2022-07-29T13:48:03;6.97;;;1.27;;
19998;SDS011;10160;50.926;4.374;2022-07-29T13:50:29;6.35;;;1.50;;
19998;SDS011;10160;50.926;4.374;2022-07-29T13:52:55;9.23;;;1.70;;
19998;SDS011;10160;50.926;4.374;2022-07-29T13:55:21;8.15;;;2.00;;
19998;SDS011;10160;50.926;4.374;2022-07-29T13:57:46;5.22;;;1.70;;
19998;SDS011;10160;50.926;4.374;2022-07-29T14:00:12;8.95;;;1.73;;
19998;SDS011;10160;50.926;4.374;2022-07-29T14:02:38;7.32;;;1.45;;
19998;SDS011;10160;50.926;4.374;2022-07-29T14:05:05;5.90;;;1.63;;
19998;SDS011;10160;50.926;4.374;2022-07-29T14:07:31;8.02;;;1.52;;
19998;SDS011;10160;50.926;4.374;2022-07-29T14:09:57;4.70;;;1.50;;
19998;SDS011;10160;50.926;4.374;2022-07-29T14:12:22;6.30;;;1.60;;
19998;SDS011;10160;50.926;4.374;2022-07-29T14:14:48;5.43;;;1.70;;
19998;SDS011;10160;50.926;4.374;2022-07-29T14:17:14;8.75;;;1.67;;
19998;SDS011;10160;50.926;4.374;2022-07-29T14:19:40;7.38;;;1.58;;
19998;SDS011;10160;50.926;4.374;2022-07-29T14:22:06;6.97;;;1.70;;
19998;SDS011;10160;50.926;4.374;2022-07-29T14:24:33;4.07;;;1.42;;
19998;SDS011;10160;50.926;4.374;2022-07-29T14:26:59;6.28;;;1.45;;
19998;SDS011;10160;50.926;4.374;2022-07-29T14:29:25;6.60;;;1.70;;
19998;SDS011;10160;50.926;4.374;2022-07-29T14:31:51;8.20;;;1.58;;
19998;SDS011;10160;50.926;4.374;2022-07-29T14:34:17;8.43;;;1.35;;
19998;SDS011;10160;50.926;4.374;2022-07-29T14:36:43;4.10;;;1.30;;
19998;SDS011;10160;50.926;4.374;2022-07-29T14:39:09;3.95;;;1.40;;
19998;SDS011;10160;50.926;4.374;2022-07-29T14:41:34;9.65;;;1.50;;
19998;SDS011;10160;50.926;4.374;2022-07-29T14:44:00;6.85;;;1.30;;
19998;SDS011;10160;50.926;4.374;2022-07-29T14:46:26;8.85;;;1.20;;
19998;SDS011;10160;50.926;4.374;2022-07-29T14:48:52;4.07;;;1.40;;
19998;SDS011;10160;50.926;4.374;2022-07-29T14:51:18;3.72;;;1.33;;
19998;SDS011;10160;50.926;4.374;2022-07-29T14:53:43;6.18;;;1.85;;
19998;SDS011;10160;50.926;4.374;2022-07-29T14:56:09;8.30;;;1.50;;
19998;SDS011;10160;50.926;4.374;2022-07-29T14:58:35;5.07;;;1.45;;
19998;SDS011;10160;50.926;4.374;2022-07-29T15:01:01;5.45;;;1.30;;
19998;SDS011;10160;50.926;4.374;2022-07-29T15:03:27;6.13;;;1.30;;
19998;SDS011;10160;50.926;4.374;2022-07-29T15:05:53;6.53;;;1.65;;
19998;SDS011;10160;50.926;4.374;2022-07-29T15:08:19;6.47;;;1.40;;
19998;SDS011;10160;50.926;4.374;2022-07-29T15:10:45;10.90;;;1.75;;
19998;SDS011;10160;50.926;4.374;2022-07-29T15:13:10;7.65;;;1.77;;
19998;SDS011;10160;50.926;4.374;2022-07-29T15:15:36;12.48;;;1.77;;
19998;SDS011;10160;50.926;4.374;2022-07-29T15:18:02;6.85;;;1.60;;
19998;SDS011;10160;50.926;4.374;2022-07-29T15:20:28;10.05;;;1.88;;
19998;SDS011;10160;50.926;4.374;2022-07-29T15:22:54;6.18;;;1.95;;
19998;SDS011;10160;50.926;4.374;2022-07-29T15:25:21;5.78;;;1.85;;
19998;SDS011;10160;50.926;4.374;2022-07-29T15:27:47;4.85;;;1.67;;
19998;SDS011;10160;50.926;4.374;2022-07-29T15:30:13;6.57;;;1.65;;
19998;SDS011;10160;50.926;4.374;2022-07-29T15:32:41;6.30;;;1.98;;
19998;SDS011;10160;50.926;4.374;2022-07-29T15:35:10;6.60;;;2.03;;
19998;SDS011;10160;50.926;4.374;2022-07-29T15:37:36;9.00;;;1.90;;
19998;SDS011;10160;50.926;4.374;2022-07-29T15:40:03;8.05;;;2.20;;
19998;SDS011;10160;50.926;4.374;2022-07-29T15:42:29;10.52;;;2.00;;
19998;SDS011;10160;50.926;4.374;2022-07-29T15:44:56;10.80;;;2.40;;
19998;SDS011;10160;50.926;4.374;2022-07-29T15:47:21;9.15;;;1.95;;
19998;SDS011;10160;50.926;4.374;2022-07-29T15:49:47;6.90;;;1.73;;
19998;SDS011;10160;50.926;4.374;2022-07-29T15:52:14;5.78;;;1.88;;